PWSweather.com
Personal Weather Stations
Station Observations
GRD01
Warsaw, LesznoPL 05-084

WarsawLesznoPL 05-084

Lat: 52.257404, Lon: 20.564847

Elevation: 298

Station Type: WH3080

http://pogoda.kampinos.waw.pl

High Low Average
Temperature 80.1°F26.7°C 53.8°F12.1°C 67.3°F19.6°C
Dew Point 53.4°F11.9°C 47.8°F8.8°C 50.2°F10.1°C
Winds 9.8 mph 15.8 kmh Calm Calm 4.0 mph SSW6.4 kmh SSW
Wind Gusts 19.0 mph30.6 kmh -- 7.0 mph11.3 kmh
Humidity 83% 34% 57%
Pressure 30.48 in1032.2 mb 30.35 in1027.8 mb -
Precipitation 0.00 in0.0 mm - -
Hour Temp Dew Point Humidity Winds Wind Gusts Pressure Precip Precip Rate Daily Precip Total
12:00 AM 56.8°F13.8°C 48.6°F9.2°C 74% 2.2 mph SE3.5 kmh SE 3.8 mph6.1 kmh 30.44 in1030.8 mb 0.00 in0.0 mm 0.00 in0.0 mm 0.00 in0.0 mm
12:05 AM 56.8°F13.8°C 48.6°F9.2°C 74% 2.2 mph SE3.5 kmh SE 3.8 mph6.1 kmh 30.00 in1015.9 mb 0.00 in0.0 mm 0.00 in0.0 mm 0.00 in0.0 mm
12:15 AM 56.7°F13.7°C 48.5°F9.2°C 74% 2.2 mph SSE3.5 kmh SSE 3.8 mph6.1 kmh 30.44 in1030.8 mb 0.00 in0.0 mm 0.00 in0.0 mm 0.00 in0.0 mm
12:30 AM 56.7°F13.7°C 48.5°F9.2°C 74% 2.2 mph S3.5 kmh S 3.8 mph6.1 kmh 30.44 in1030.8 mb 0.00 in0.0 mm 0.00 in0.0 mm 0.00 in0.0 mm
12:35 AM 56.7°F13.7°C 48.5°F9.2°C 74% 1.6 mph SE2.6 kmh SE 3.1 mph5.0 kmh 30.00 in1015.9 mb 0.00 in0.0 mm 0.00 in0.0 mm 0.00 in0.0 mm
12:45 AM 56.3°F13.5°C 48.5°F9.2°C 75% 3.1 mph SSE5.0 kmh SSE 4.5 mph7.2 kmh 30.44 in1030.8 mb 0.00 in0.0 mm 0.00 in0.0 mm 0.00 in0.0 mm
01:00 AM 56.1°F13.4°C 48.3°F9.1°C 75% 2.2 mph SE3.5 kmh SE 3.8 mph6.1 kmh 30.44 in1030.8 mb 0.00 in0.0 mm 0.00 in0.0 mm 0.00 in0.0 mm
01:05 AM 56.1°F13.4°C 48.3°F9.1°C 75% 2.2 mph SE3.5 kmh SE 3.1 mph5.0 kmh 30.00 in1015.9 mb 0.00 in0.0 mm 0.00 in0.0 mm 0.00 in0.0 mm
01:15 AM 55.8°F13.2°C 48.3°F9.1°C 76% 2.2 mph SE3.5 kmh SE 3.8 mph6.1 kmh 30.43 in1030.5 mb 0.00 in0.0 mm 0.00 in0.0 mm 0.00 in0.0 mm
01:30 AM 55.6°F13.1°C 48.1°F8.9°C 76% 1.6 mph S2.6 kmh S 3.8 mph6.1 kmh 30.43 in1030.5 mb 0.00 in0.0 mm 0.00 in0.0 mm 0.00 in0.0 mm
01:35 AM 55.6°F13.1°C 48.1°F8.9°C 76% 2.2 mph S3.5 kmh S 3.8 mph6.1 kmh 29.99 in1015.6 mb 0.00 in0.0 mm 0.00 in0.0 mm 0.00 in0.0 mm
01:45 AM 55.2°F12.9°C 48.1°F8.9°C 77% 3.1 mph S5.0 kmh S 4.5 mph7.2 kmh 30.43 in1030.5 mb 0.00 in0.0 mm 0.00 in0.0 mm 0.00 in0.0 mm
02:00 AM 54.9°F12.7°C 47.8°F8.8°C 77% 1.6 mph S2.6 kmh S 3.8 mph6.1 kmh 30.43 in1030.5 mb 0.00 in0.0 mm 0.00 in0.0 mm 0.00 in0.0 mm
02:05 AM 55.0°F12.8°C 48.0°F8.9°C 77% 1.6 mph S2.6 kmh S 3.1 mph5.0 kmh 29.99 in1015.6 mb 0.00 in0.0 mm 0.00 in0.0 mm 0.00 in0.0 mm
02:15 AM 54.7°F12.6°C 48.0°F8.9°C 78% 1.6 mph SSE2.6 kmh SSE 4.5 mph7.2 kmh 30.43 in1030.5 mb 0.00 in0.0 mm 0.00 in0.0 mm 0.00 in0.0 mm
02:30 AM 54.7°F12.6°C 48.0°F8.9°C 78% 0.7 mph SSE1.1 kmh SSE 3.1 mph5.0 kmh 30.42 in1030.1 mb 0.00 in0.0 mm 0.00 in0.0 mm 0.00 in0.0 mm
02:35 AM 54.7°F12.6°C 48.0°F8.9°C 78% 1.6 mph S2.6 kmh S 3.1 mph5.0 kmh 29.98 in1015.2 mb 0.00 in0.0 mm 0.00 in0.0 mm 0.00 in0.0 mm
02:45 AM 54.3°F12.4°C 48.6°F9.2°C 81% 2.2 mph SSE3.5 kmh SSE 3.1 mph5.0 kmh 30.43 in1030.5 mb 0.00 in0.0 mm 0.00 in0.0 mm 0.00 in0.0 mm
03:00 AM 54.1°F12.3°C 48.4°F9.1°C 81% 0.7 mph SE1.1 kmh SE 3.1 mph5.0 kmh 30.42 in1030.1 mb 0.00 in0.0 mm 0.00 in0.0 mm 0.00 in0.0 mm
03:15 AM 54.0°F12.2°C 48.6°F9.2°C 82% 2.2 mph SE3.5 kmh SE 3.8 mph6.1 kmh 30.42 in1030.1 mb 0.00 in0.0 mm 0.00 in0.0 mm 0.00 in0.0 mm
03:30 AM 53.8°F12.1°C 48.4°F9.1°C 82% 3.1 mph SE5.0 kmh SE 3.8 mph6.1 kmh 30.41 in1029.8 mb 0.00 in0.0 mm 0.00 in0.0 mm 0.00 in0.0 mm
03:39 AM 32.0°F0.0°C 25.9°F-3.4°C 78% 66.0 mph S106.2 kmh S 59.5 mph95.8 kmh 29.98 in1015.2 mb 0.00 in0.0 mm 0.00 in0.0 mm 600.53 in15253.5 mm
03:45 AM 54.0°F12.2°C 48.9°F9.4°C 83% 3.1 mph SE5.0 kmh SE 4.5 mph7.2 kmh 30.41 in1029.8 mb 0.00 in0.0 mm 0.00 in0.0 mm 0.00 in0.0 mm
04:00 AM 54.3°F12.4°C 48.9°F9.4°C 82% 3.1 mph SE5.0 kmh SE 4.5 mph7.2 kmh 30.41 in1029.8 mb 0.00 in0.0 mm 0.00 in0.0 mm 0.00 in0.0 mm
04:09 AM 54.3°F12.4°C 48.9°F9.4°C 82% 3.1 mph SE5.0 kmh SE 3.8 mph6.1 kmh 29.97 in1014.9 mb 0.00 in0.0 mm 0.00 in0.0 mm 0.00 in0.0 mm
04:15 AM 54.5°F12.5°C 48.1°F8.9°C 79% 3.1 mph SE5.0 kmh SE 4.5 mph7.2 kmh 30.41 in1029.8 mb 0.00 in0.0 mm 0.00 in0.0 mm 0.00 in0.0 mm
04:30 AM 54.5°F12.5°C 48.1°F8.9°C 79% 3.1 mph SE5.0 kmh SE 4.5 mph7.2 kmh 30.41 in1029.8 mb 0.00 in0.0 mm 0.00 in0.0 mm 0.00 in0.0 mm
04:39 AM 54.5°F12.5°C 48.1°F8.9°C 79% 3.1 mph SE5.0 kmh SE 3.8 mph6.1 kmh 29.97 in1014.9 mb 0.00 in0.0 mm 0.00 in0.0 mm 0.00 in0.0 mm
04:45 AM 54.3°F12.4°C 48.6°F9.2°C 81% 3.8 mph SE6.1 kmh SE 5.4 mph8.7 kmh 30.41 in1029.8 mb 0.00 in0.0 mm 0.00 in0.0 mm 0.00 in0.0 mm
05:00 AM 54.5°F12.5°C 47.8°F8.8°C 78% 3.8 mph SSE6.1 kmh SSE 5.4 mph8.7 kmh 30.41 in1029.8 mb 0.00 in0.0 mm 0.00 in0.0 mm 0.00 in0.0 mm
05:09 AM 54.5°F12.5°C 47.8°F8.8°C 78% 2.2 mph SE3.5 kmh SE 3.1 mph5.0 kmh 29.97 in1014.9 mb 0.00 in0.0 mm 0.00 in0.0 mm 0.00 in0.0 mm
05:15 AM 54.7°F12.6°C 48.0°F8.9°C 78% 3.1 mph SSE5.0 kmh SSE 3.8 mph6.1 kmh 30.41 in1029.8 mb 0.00 in0.0 mm 0.00 in0.0 mm 0.00 in0.0 mm
05:30 AM 54.9°F12.7°C 48.1°F8.9°C 78% 2.2 mph SE3.5 kmh SE 5.4 mph8.7 kmh 30.41 in1029.8 mb 0.00 in0.0 mm 0.00 in0.0 mm 0.00 in0.0 mm
05:39 AM 54.9°F12.7°C 48.1°F8.9°C 78% 2.2 mph SE3.5 kmh SE 3.1 mph5.0 kmh 29.97 in1014.9 mb 0.00 in0.0 mm 0.00 in0.0 mm 0.00 in0.0 mm
05:45 AM 55.2°F12.9°C 48.5°F9.2°C 78% 3.1 mph SE5.0 kmh SE 4.5 mph7.2 kmh 30.41 in1029.8 mb 0.00 in0.0 mm 0.00 in0.0 mm 0.00 in0.0 mm
06:00 AM 56.1°F13.4°C 49.0°F9.4°C 77% 2.2 mph SSE3.5 kmh SSE 4.5 mph7.2 kmh 30.41 in1029.8 mb 0.00 in0.0 mm 0.00 in0.0 mm 0.00 in0.0 mm
06:09 AM 56.1°F13.4°C 49.0°F9.4°C 77% 3.1 mph S5.0 kmh S 4.5 mph7.2 kmh 29.96 in1014.6 mb 0.00 in0.0 mm 0.00 in0.0 mm 0.00 in0.0 mm
06:15 AM 56.8°F13.8°C 49.4°F9.7°C 76% 3.8 mph SE6.1 kmh SE 6.0 mph9.7 kmh 30.41 in1029.8 mb 0.00 in0.0 mm 0.00 in0.0 mm 0.00 in0.0 mm
06:30 AM 57.4°F14.1°C 49.9°F9.9°C 76% 3.1 mph SE5.0 kmh SE 5.4 mph8.7 kmh 30.41 in1029.8 mb 0.00 in0.0 mm 0.00 in0.0 mm 0.00 in0.0 mm
06:39 AM 56.1°F13.4°C 49.0°F9.4°C 77% 3.1 mph S5.0 kmh S 4.5 mph7.2 kmh 29.97 in1014.9 mb 0.00 in0.0 mm 0.00 in0.0 mm 0.00 in0.0 mm
06:45 AM 58.3°F14.6°C 50.4°F10.2°C 75% 2.2 mph SE3.5 kmh SE 6.0 mph9.7 kmh 30.41 in1029.8 mb 0.00 in0.0 mm 0.00 in0.0 mm 0.00 in0.0 mm
07:00 AM 59.0°F15.0°C 51.1°F10.6°C 75% 3.8 mph SE6.1 kmh SE 5.4 mph8.7 kmh 30.41 in1029.8 mb 0.00 in0.0 mm 0.00 in0.0 mm 0.00 in0.0 mm
07:09 AM 59.0°F15.0°C 51.1°F10.6°C 75% 3.8 mph SE6.1 kmh SE 4.5 mph7.2 kmh 29.96 in1014.6 mb 0.00 in0.0 mm 0.00 in0.0 mm 0.00 in0.0 mm
07:15 AM 60.8°F16.0°C 52.5°F11.4°C 74% 3.8 mph S6.1 kmh S 5.4 mph8.7 kmh 30.41 in1029.8 mb 0.00 in0.0 mm 0.00 in0.0 mm 0.00 in0.0 mm
07:30 AM 62.6°F17.0°C 53.4°F11.9°C 72% 2.2 mph S3.5 kmh S 7.6 mph12.2 kmh 30.40 in1029.5 mb 0.00 in0.0 mm 0.00 in0.0 mm 0.00 in0.0 mm
07:39 AM 62.6°F17.0°C 53.4°F11.9°C 72% 5.4 mph S8.7 kmh S 7.6 mph12.2 kmh 29.96 in1014.6 mb 0.00 in0.0 mm 0.00 in0.0 mm 0.00 in0.0 mm
07:45 AM 64.4°F18.0°C 52.0°F11.1°C 64% 4.5 mph SSE7.2 kmh SSE 8.3 mph13.4 kmh 30.41 in1029.8 mb 0.00 in0.0 mm 0.00 in0.0 mm 0.00 in0.0 mm
08:00 AM 66.0°F18.9°C 52.2°F11.2°C 61% 3.8 mph SSE6.1 kmh SSE 9.2 mph14.8 kmh 30.40 in1029.5 mb 0.00 in0.0 mm 0.00 in0.0 mm 0.00 in0.0 mm
08:09 AM 65.8°F18.8°C 52.5°F11.4°C 62% 6.0 mph S9.7 kmh S 9.2 mph14.8 kmh 29.96 in1014.6 mb 0.00 in0.0 mm 0.00 in0.0 mm 0.00 in0.0 mm
08:15 AM 67.3°F19.6°C 52.5°F11.4°C 59% 4.5 mph S7.2 kmh S 9.8 mph15.8 kmh 30.40 in1029.5 mb 0.00 in0.0 mm 0.00 in0.0 mm 0.00 in0.0 mm
08:30 AM 68.7°F20.4°C 52.4°F11.3°C 56% 5.4 mph SSE8.7 kmh SSE 7.6 mph12.2 kmh 30.41 in1029.8 mb 0.00 in0.0 mm 0.00 in0.0 mm 0.00 in0.0 mm
08:39 AM 68.5°F20.3°C 52.2°F11.2°C 56% 5.4 mph S8.7 kmh S 7.6 mph12.2 kmh 29.96 in1014.6 mb 0.00 in0.0 mm 0.00 in0.0 mm 0.00 in0.0 mm
08:45 AM 69.8°F21.0°C 51.4°F10.8°C 52% 3.8 mph SSE6.1 kmh SSE 9.2 mph14.8 kmh 30.41 in1029.8 mb 0.00 in0.0 mm 0.00 in0.0 mm 0.00 in0.0 mm
09:00 AM 70.9°F21.6°C 51.3°F10.7°C 50% 6.0 mph S9.7 kmh S 11.4 mph18.3 kmh 30.40 in1029.5 mb 0.00 in0.0 mm 0.00 in0.0 mm 0.00 in0.0 mm
09:09 AM 70.7°F21.5°C 51.1°F10.6°C 50% 7.6 mph S12.2 kmh S 10.7 mph17.2 kmh 29.95 in1014.2 mb 0.00 in0.0 mm 0.00 in0.0 mm 0.00 in0.0 mm
09:15 AM 71.4°F21.9°C 51.3°F10.7°C 49% 9.2 mph S14.8 kmh S 15.2 mph24.5 kmh 30.40 in1029.5 mb 0.00 in0.0 mm 0.00 in0.0 mm 0.00 in0.0 mm
09:30 AM 72.5°F22.5°C 49.3°F9.6°C 44% 8.3 mph SSE13.4 kmh SSE 13.0 mph20.9 kmh 30.40 in1029.5 mb 0.00 in0.0 mm 0.00 in0.0 mm 0.00 in0.0 mm
09:39 AM 72.3°F22.4°C 51.0°F10.6°C 47% 7.6 mph S12.2 kmh S 11.4 mph18.3 kmh 29.96 in1014.6 mb 0.00 in0.0 mm 0.00 in0.0 mm 0.00 in0.0 mm
09:45 AM 73.6°F23.1°C 49.1°F9.5°C 42% 6.0 mph S9.7 kmh S 11.4 mph18.3 kmh 30.40 in1029.5 mb 0.00 in0.0 mm 0.00 in0.0 mm 0.00 in0.0 mm
10:00 AM 73.9°F23.3°C 49.4°F9.7°C 42% 5.4 mph S8.7 kmh S 12.1 mph19.5 kmh 30.40 in1029.5 mb 0.00 in0.0 mm 0.00 in0.0 mm 0.00 in0.0 mm
10:09 AM 73.8°F23.2°C 49.2°F9.6°C 42% 7.6 mph SE12.2 kmh SE 9.2 mph14.8 kmh 29.95 in1014.2 mb 0.00 in0.0 mm 0.00 in0.0 mm 0.00 in0.0 mm
10:15 AM 74.1°F23.4°C 48.9°F9.4°C 41% 6.9 mph S11.1 kmh S 12.1 mph19.5 kmh 30.40 in1029.5 mb 0.00 in0.0 mm 0.00 in0.0 mm 0.00 in0.0 mm
10:30 AM 74.8°F23.8°C 49.6°F9.8°C 41% 6.9 mph S11.1 kmh S 11.4 mph18.3 kmh 30.39 in1029.1 mb 0.00 in0.0 mm 0.00 in0.0 mm 0.00 in0.0 mm
10:39 AM 74.7°F23.7°C 49.4°F9.7°C 41% 8.3 mph SE13.4 kmh SE 9.8 mph15.8 kmh 29.95 in1014.2 mb 0.00 in0.0 mm 0.00 in0.0 mm 0.00 in0.0 mm
10:45 AM 75.4°F24.1°C 50.0°F10.0°C 41% 5.4 mph S8.7 kmh S 12.1 mph19.5 kmh 30.39 in1029.1 mb 0.00 in0.0 mm 0.00 in0.0 mm 0.00 in0.0 mm
11:00 AM 75.9°F24.4°C 49.9°F9.9°C 40% 6.9 mph S11.1 kmh S 9.8 mph15.8 kmh 30.39 in1029.1 mb 0.00 in0.0 mm 0.00 in0.0 mm 0.00 in0.0 mm
11:09 AM 75.7°F24.3°C 49.7°F9.8°C 40% 6.9 mph SE11.1 kmh SE 9.8 mph15.8 kmh 29.95 in1014.2 mb 0.00 in0.0 mm 0.00 in0.0 mm 0.00 in0.0 mm
11:15 AM 76.1°F24.5°C 50.0°F10.0°C 40% 3.8 mph SSE6.1 kmh SSE 9.2 mph14.8 kmh 30.38 in1028.8 mb 0.00 in0.0 mm 0.00 in0.0 mm 0.00 in0.0 mm
11:30 AM 76.6°F24.8°C 50.5°F10.3°C 40% 3.1 mph S5.0 kmh S 12.1 mph19.5 kmh 30.39 in1029.1 mb 0.00 in0.0 mm 0.00 in0.0 mm 0.00 in0.0 mm
11:39 AM 76.5°F24.7°C 50.3°F10.2°C 40% 4.5 mph S7.2 kmh S 6.9 mph11.1 kmh 29.93 in1013.5 mb 0.00 in0.0 mm 0.00 in0.0 mm 0.00 in0.0 mm
11:45 AM 76.8°F24.9°C 50.7°F10.4°C 40% 7.6 mph S12.2 kmh S 10.7 mph17.2 kmh 30.38 in1028.8 mb 0.00 in0.0 mm 0.00 in0.0 mm 0.00 in0.0 mm
12:00 PM 77.5°F25.3°C 51.3°F10.7°C 40% 3.1 mph S5.0 kmh S 9.2 mph14.8 kmh 30.38 in1028.8 mb 0.00 in0.0 mm 0.00 in0.0 mm 0.00 in0.0 mm
12:09 PM 77.4°F25.2°C 51.1°F10.6°C 40% 4.5 mph S7.2 kmh S 6.9 mph11.1 kmh 29.94 in1013.9 mb 0.00 in0.0 mm 0.00 in0.0 mm 0.00 in0.0 mm
12:15 PM 77.5°F25.3°C 49.9°F9.9°C 38% 9.2 mph S14.8 kmh S 12.1 mph19.5 kmh 30.38 in1028.8 mb 0.00 in0.0 mm 0.00 in0.0 mm 0.00 in0.0 mm
12:30 PM 77.5°F25.3°C 51.3°F10.7°C 40% 6.9 mph S11.1 kmh S 13.6 mph21.9 kmh 30.38 in1028.8 mb 0.00 in0.0 mm 0.00 in0.0 mm 0.00 in0.0 mm
12:39 PM 77.5°F25.3°C 51.3°F10.7°C 40% 6.9 mph W11.1 kmh W 13.6 mph21.9 kmh 29.93 in1013.5 mb 0.00 in0.0 mm 0.00 in0.0 mm 0.00 in0.0 mm
12:45 PM 78.3°F25.7°C 50.6°F10.3°C 38% 8.3 mph S13.4 kmh S 13.0 mph20.9 kmh 30.37 in1028.4 mb 0.00 in0.0 mm 0.00 in0.0 mm 0.00 in0.0 mm
01:00 PM 78.3°F25.7°C 50.6°F10.3°C 38% 7.6 mph S12.2 kmh S 19.0 mph30.6 kmh 30.37 in1028.4 mb 0.00 in0.0 mm 0.00 in0.0 mm 0.00 in0.0 mm
01:09 PM 78.3°F25.7°C 50.6°F10.3°C 38% 7.6 mph S12.2 kmh S 12.1 mph19.5 kmh 29.93 in1013.5 mb 0.00 in0.0 mm 0.00 in0.0 mm 0.00 in0.0 mm
01:15 PM 78.6°F25.9°C 50.9°F10.5°C 38% 5.4 mph SSW8.7 kmh SSW 12.1 mph19.5 kmh 30.37 in1028.4 mb 0.00 in0.0 mm 0.00 in0.0 mm 0.00 in0.0 mm
01:30 PM 78.8°F26.0°C 52.4°F11.3°C 40% 4.5 mph S7.2 kmh S 13.6 mph21.9 kmh 30.37 in1028.4 mb 0.00 in0.0 mm 0.00 in0.0 mm 0.00 in0.0 mm
01:39 PM 78.8°F26.0°C 51.7°F10.9°C 39% 4.5 mph S7.2 kmh S 8.3 mph13.4 kmh 29.93 in1013.5 mb 0.00 in0.0 mm 0.00 in0.0 mm 0.00 in0.0 mm
01:45 PM 78.8°F26.0°C 51.7°F10.9°C 39% 7.6 mph S12.2 kmh S 10.7 mph17.2 kmh 30.37 in1028.4 mb 0.00 in0.0 mm 0.00 in0.0 mm 0.00 in0.0 mm
02:00 PM 79.5°F26.4°C 51.0°F10.6°C 37% 5.4 mph S8.7 kmh S 10.7 mph17.2 kmh 30.36 in1028.1 mb 0.00 in0.0 mm 0.00 in0.0 mm 0.00 in0.0 mm
02:09 PM 79.3°F26.3°C 50.8°F10.4°C 37% 5.4 mph SE8.7 kmh SE 8.3 mph13.4 kmh 29.92 in1013.2 mb 0.00 in0.0 mm 0.00 in0.0 mm 0.00 in0.0 mm
02:15 PM 79.9°F26.6°C 50.5°F10.3°C 36% 6.9 mph S11.1 kmh S 9.8 mph15.8 kmh 30.37 in1028.4 mb 0.00 in0.0 mm 0.00 in0.0 mm 0.00 in0.0 mm
02:30 PM 79.9°F26.6°C 49.8°F9.9°C 35% 4.5 mph S7.2 kmh S 12.1 mph19.5 kmh 30.36 in1028.1 mb 0.00 in0.0 mm 0.00 in0.0 mm 0.00 in0.0 mm
02:39 PM 79.9°F26.6°C 49.8°F9.9°C 35% 7.6 mph S12.2 kmh S 10.7 mph17.2 kmh 29.92 in1013.2 mb 0.00 in0.0 mm 0.00 in0.0 mm 0.00 in0.0 mm
02:45 PM 80.1°F26.7°C 49.9°F9.9°C 35% 4.5 mph S7.2 kmh S 9.8 mph15.8 kmh 30.36 in1028.1 mb 0.00 in0.0 mm 0.00 in0.0 mm 0.00 in0.0 mm
03:00 PM 80.1°F26.7°C 49.9°F9.9°C 35% 3.1 mph SSW5.0 kmh SSW 13.0 mph20.9 kmh 30.36 in1028.1 mb 0.00 in0.0 mm 0.00 in0.0 mm 0.00 in0.0 mm
03:09 PM 80.2°F26.8°C 50.1°F10.1°C 35% 4.5 mph S7.2 kmh S 6.9 mph11.1 kmh 29.91 in1012.9 mb 0.00 in0.0 mm 0.00 in0.0 mm 0.00 in0.0 mm
03:15 PM 79.2°F26.2°C 49.9°F9.9°C 36% 4.5 mph S7.2 kmh S 7.6 mph12.2 kmh 30.35 in1027.8 mb 0.00 in0.0 mm 0.00 in0.0 mm 0.00 in0.0 mm
03:30 PM 78.8°F26.0°C 49.6°F9.8°C 36% 3.1 mph S5.0 kmh S 6.9 mph11.1 kmh 30.36 in1028.1 mb 0.00 in0.0 mm 0.00 in0.0 mm 0.00 in0.0 mm
03:39 PM 78.6°F25.9°C 50.2°F10.1°C 37% 3.8 mph SW6.1 kmh SW 5.4 mph8.7 kmh 29.92 in1013.2 mb 0.00 in0.0 mm 0.00 in0.0 mm 0.00 in0.0 mm
03:45 PM 79.7°F26.5°C 50.4°F10.2°C 36% 2.2 mph S3.5 kmh S 11.4 mph18.3 kmh 30.36 in1028.1 mb 0.00 in0.0 mm 0.00 in0.0 mm 0.00 in0.0 mm
04:00 PM 79.2°F26.2°C 48.4°F9.1°C 34% 2.2 mph SSW3.5 kmh SSW 12.1 mph19.5 kmh 30.36 in1028.1 mb 0.00 in0.0 mm 0.00 in0.0 mm 0.00 in0.0 mm
04:09 PM 79.3°F26.3°C 47.7°F8.7°C 33% 3.1 mph S5.0 kmh S 3.8 mph6.1 kmh 29.92 in1013.2 mb 0.00 in0.0 mm 0.00 in0.0 mm 0.00 in0.0 mm
04:15 PM 78.6°F25.9°C 48.7°F9.3°C 35% 1.6 mph WSW2.6 kmh WSW 3.8 mph6.1 kmh 30.36 in1028.1 mb 0.00 in0.0 mm 0.00 in0.0 mm 0.00 in0.0 mm
04:30 PM 77.7°F25.4°C 48.6°F9.2°C 36% 1.6 mph SW2.6 kmh SW 3.8 mph6.1 kmh 30.36 in1028.1 mb 0.00 in0.0 mm 0.00 in0.0 mm 0.00 in0.0 mm
04:39 PM 77.9°F25.5°C 48.8°F9.3°C 36% 2.2 mph S3.5 kmh S 3.1 mph5.0 kmh 29.92 in1013.2 mb 0.00 in0.0 mm 0.00 in0.0 mm 0.00 in0.0 mm
04:45 PM 77.0°F25.0°C 50.8°F10.4°C 40% 1.6 mph S2.6 kmh S 3.8 mph6.1 kmh 30.36 in1028.1 mb 0.00 in0.0 mm 0.00 in0.0 mm 0.00 in0.0 mm
05:00 PM 76.3°F24.6°C 50.8°F10.4°C 41% Calm Calm 3.1 mph5.0 kmh 30.36 in1028.1 mb 0.00 in0.0 mm 0.00 in0.0 mm 0.00 in0.0 mm
05:09 PM 76.5°F24.7°C 50.3°F10.2°C 40% Calm Calm 0.7 mph1.1 kmh 29.92 in1013.2 mb 0.00 in0.0 mm 0.00 in0.0 mm 0.00 in0.0 mm
05:15 PM 75.7°F24.3°C 51.0°F10.6°C 42% Calm Calm 0.7 mph1.1 kmh 30.36 in1028.1 mb 0.00 in0.0 mm 0.00 in0.0 mm 0.00 in0.0 mm
05:30 PM 75.0°F23.9°C 51.0°F10.6°C 43% Calm Calm 1.6 mph2.6 kmh 30.37 in1028.4 mb 0.00 in0.0 mm 0.00 in0.0 mm 0.00 in0.0 mm
05:39 PM 75.0°F23.9°C 51.0°F10.6°C 43% Calm Calm -- 29.92 in1013.2 mb 0.00 in0.0 mm 0.00 in0.0 mm 0.00 in0.0 mm
05:45 PM 74.3°F23.5°C 51.6°F10.9°C 45% Calm Calm -- 30.36 in1028.1 mb 0.00 in0.0 mm 0.00 in0.0 mm 0.00 in0.0 mm
06:00 PM 73.6°F23.1°C 53.2°F11.8°C 49% 2.2 mph SW3.5 kmh SW 3.1 mph5.0 kmh 30.38 in1028.8 mb 0.00 in0.0 mm 0.00 in0.0 mm 0.00 in0.0 mm
06:10 PM 73.6°F23.1°C 53.2°F11.8°C 49% 2.2 mph SW3.5 kmh SW 3.1 mph5.0 kmh 29.94 in1013.9 mb 0.00 in0.0 mm 0.00 in0.0 mm 0.00 in0.0 mm
06:15 PM 73.4°F23.0°C 51.4°F10.8°C 46% 6.0 mph NW9.7 kmh NW 9.8 mph15.8 kmh 30.38 in1028.8 mb 0.00 in0.0 mm 0.00 in0.0 mm 0.00 in0.0 mm
06:30 PM 73.2°F22.9°C 51.2°F10.7°C 46% 6.9 mph NW11.1 kmh NW 8.3 mph13.4 kmh 30.39 in1029.1 mb 0.00 in0.0 mm 0.00 in0.0 mm 0.00 in0.0 mm
06:40 PM 73.2°F22.9°C 51.2°F10.7°C 46% 6.9 mph NW11.1 kmh NW 8.3 mph13.4 kmh 29.95 in1014.2 mb 0.00 in0.0 mm 0.00 in0.0 mm 0.00 in0.0 mm
06:45 PM 72.7°F22.6°C 51.3°F10.7°C 47% 3.1 mph NW5.0 kmh NW 6.9 mph11.1 kmh 30.40 in1029.5 mb 0.00 in0.0 mm 0.00 in0.0 mm 0.00 in0.0 mm
07:00 PM 72.1°F22.3°C 53.0°F11.7°C 51% 2.2 mph NW3.5 kmh NW 6.0 mph9.7 kmh 30.40 in1029.5 mb 0.00 in0.0 mm 0.00 in0.0 mm 0.00 in0.0 mm
07:10 PM 72.1°F22.3°C 53.0°F11.7°C 51% 2.2 mph NW3.5 kmh NW 3.1 mph5.0 kmh 29.96 in1014.6 mb 0.00 in0.0 mm 0.00 in0.0 mm 0.00 in0.0 mm
07:15 PM 70.9°F21.6°C 52.4°F11.3°C 52% 3.8 mph WNW6.1 kmh WNW 4.5 mph7.2 kmh 30.41 in1029.8 mb 0.00 in0.0 mm 0.00 in0.0 mm 0.00 in0.0 mm
07:30 PM 69.8°F21.0°C 51.9°F11.1°C 53% 5.4 mph NW8.7 kmh NW 9.8 mph15.8 kmh 30.42 in1030.1 mb 0.00 in0.0 mm 0.00 in0.0 mm 0.00 in0.0 mm
07:40 PM 69.8°F21.0°C 51.9°F11.1°C 53% 5.4 mph NW8.7 kmh NW 6.0 mph9.7 kmh 29.98 in1015.2 mb 0.00 in0.0 mm 0.00 in0.0 mm 0.00 in0.0 mm
07:45 PM 68.9°F20.5°C 52.6°F11.4°C 56% 8.3 mph NW13.4 kmh NW 10.7 mph17.2 kmh 30.43 in1030.5 mb 0.00 in0.0 mm 0.00 in0.0 mm 0.00 in0.0 mm
08:00 PM 68.5°F20.3°C 53.2°F11.8°C 58% 9.8 mph NW15.8 kmh NW 16.8 mph27.0 kmh 30.43 in1030.5 mb 0.00 in0.0 mm 0.00 in0.0 mm 0.00 in0.0 mm
08:10 PM 68.5°F20.3°C 53.2°F11.8°C 58% 9.8 mph NW15.8 kmh NW 13.0 mph20.9 kmh 29.99 in1015.6 mb 0.00 in0.0 mm 0.00 in0.0 mm 0.00 in0.0 mm
08:15 PM 68.4°F20.2°C 53.0°F11.7°C 58% 6.0 mph NW9.7 kmh NW 15.9 mph25.6 kmh 30.44 in1030.8 mb 0.00 in0.0 mm 0.00 in0.0 mm 0.00 in0.0 mm
08:30 PM 67.8°F19.9°C 52.0°F11.1°C 57% 7.6 mph NW12.2 kmh NW 11.4 mph18.3 kmh 30.45 in1031.2 mb 0.00 in0.0 mm 0.00 in0.0 mm 0.00 in0.0 mm
08:40 PM 67.8°F19.9°C 52.0°F11.1°C 57% 7.6 mph NW12.2 kmh NW 9.8 mph15.8 kmh 30.01 in1016.3 mb 0.00 in0.0 mm 0.00 in0.0 mm 0.00 in0.0 mm
08:45 PM 67.3°F19.6°C 51.5°F10.8°C 57% 4.5 mph NW7.2 kmh NW 9.8 mph15.8 kmh 30.45 in1031.2 mb 0.00 in0.0 mm 0.00 in0.0 mm 0.00 in0.0 mm
09:00 PM 66.7°F19.3°C 51.0°F10.6°C 57% 3.8 mph NW6.1 kmh NW 6.0 mph9.7 kmh 30.45 in1031.2 mb 0.00 in0.0 mm 0.00 in0.0 mm 0.00 in0.0 mm
09:10 PM 66.7°F19.3°C 51.0°F10.6°C 57% 3.8 mph NW6.1 kmh NW 4.5 mph7.2 kmh 30.01 in1016.3 mb 0.00 in0.0 mm 0.00 in0.0 mm 0.00 in0.0 mm
09:15 PM 66.4°F19.1°C 50.7°F10.4°C 57% 2.2 mph NW3.5 kmh NW 5.4 mph8.7 kmh 30.45 in1031.2 mb 0.00 in0.0 mm 0.00 in0.0 mm 0.00 in0.0 mm
09:30 PM 66.0°F18.9°C 49.9°F9.9°C 56% 3.1 mph NW5.0 kmh NW 8.3 mph13.4 kmh 30.46 in1031.5 mb 0.00 in0.0 mm 0.00 in0.0 mm 0.00 in0.0 mm
09:40 PM 66.0°F18.9°C 49.9°F9.9°C 56% 3.1 mph NW5.0 kmh NW 5.4 mph8.7 kmh 30.02 in1016.6 mb 0.00 in0.0 mm 0.00 in0.0 mm 0.00 in0.0 mm
09:45 PM 65.7°F18.7°C 50.0°F10.0°C 57% 0.7 mph NW1.1 kmh NW 5.4 mph8.7 kmh 30.46 in1031.5 mb 0.00 in0.0 mm 0.00 in0.0 mm 0.00 in0.0 mm
10:00 PM 65.3°F18.5°C 49.7°F9.8°C 57% 2.2 mph NNW3.5 kmh NNW 3.8 mph6.1 kmh 30.47 in1031.8 mb 0.00 in0.0 mm 0.00 in0.0 mm 0.00 in0.0 mm
10:10 PM 65.3°F18.5°C 49.7°F9.8°C 57% 2.2 mph NW3.5 kmh NW 3.1 mph5.0 kmh 30.02 in1016.6 mb 0.00 in0.0 mm 0.00 in0.0 mm 0.00 in0.0 mm
10:15 PM 65.1°F18.4°C 50.0°F10.0°C 58% 1.6 mph WNW2.6 kmh WNW 3.8 mph6.1 kmh 30.47 in1031.8 mb 0.00 in0.0 mm 0.00 in0.0 mm 0.00 in0.0 mm
10:30 PM 64.9°F18.3°C 49.8°F9.9°C 58% 1.6 mph W2.6 kmh W 4.5 mph7.2 kmh 30.47 in1031.8 mb 0.00 in0.0 mm 0.00 in0.0 mm 0.00 in0.0 mm
10:40 PM 64.9°F18.3°C 49.8°F9.9°C 58% 1.6 mph W2.6 kmh W 3.1 mph5.0 kmh 30.03 in1016.9 mb 0.00 in0.0 mm 0.00 in0.0 mm 0.00 in0.0 mm
10:45 PM 64.8°F18.2°C 50.1°F10.1°C 59% 1.6 mph WSW2.6 kmh WSW 4.5 mph7.2 kmh 30.48 in1032.2 mb 0.00 in0.0 mm 0.00 in0.0 mm 0.00 in0.0 mm
11:00 PM 64.6°F18.1°C 50.4°F10.2°C 60% 2.2 mph W3.5 kmh W 3.8 mph6.1 kmh 30.48 in1032.2 mb 0.00 in0.0 mm 0.00 in0.0 mm 0.00 in0.0 mm
11:10 PM 64.6°F18.1°C 50.4°F10.2°C 60% 2.2 mph W3.5 kmh W 3.1 mph5.0 kmh 30.04 in1017.3 mb 0.00 in0.0 mm 0.00 in0.0 mm 0.00 in0.0 mm
11:15 PM 64.4°F18.0°C 50.2°F10.1°C 60% Calm Calm 3.1 mph5.0 kmh 30.48 in1032.2 mb 0.00 in0.0 mm 0.00 in0.0 mm 0.00 in0.0 mm
11:30 PM 64.2°F17.9°C 50.5°F10.3°C 61% 0.7 mph SW1.1 kmh SW 3.1 mph5.0 kmh 30.48 in1032.2 mb 0.00 in0.0 mm 0.00 in0.0 mm 0.00 in0.0 mm
11:40 PM 64.2°F17.9°C 50.5°F10.3°C 61% 0.7 mph SW1.1 kmh SW 1.6 mph2.6 kmh 30.04 in1017.3 mb 0.00 in0.0 mm 0.00 in0.0 mm 0.00 in0.0 mm
11:45 PM 64.2°F17.9°C 50.9°F10.5°C 62% 3.1 mph WSW5.0 kmh WSW 4.5 mph7.2 kmh 30.48 in1032.2 mb 0.00 in0.0 mm 0.00 in0.0 mm 0.00 in0.0 mm